createdAt,value
2018-11-07T00:00:08.748Z,9.00
2018-11-07T00:02:11.978Z,8.90
2018-11-07T00:04:15.266Z,8.80
2018-11-07T00:06:18.771Z,8.90
2018-11-07T00:08:23.126Z,8.70
2018-11-07T00:10:26.222Z,8.60
2018-11-07T00:12:29.838Z,8.60
2018-11-07T00:14:33.262Z,8.50
2018-11-07T00:16:36.523Z,8.50
2018-11-07T00:18:42.780Z,8.40
2018-11-07T00:20:46.022Z,8.40
2018-11-07T00:22:49.270Z,8.40
2018-11-07T00:24:52.759Z,8.30
2018-11-07T00:26:56.002Z,8.30
2018-11-07T00:29:00.200Z,8.20
2018-11-07T00:31:04.064Z,8.30
2018-11-07T00:33:07.322Z,8.30
2018-11-07T00:35:11.407Z,8.30
2018-11-07T00:37:14.637Z,8.30
2018-11-07T00:39:19.402Z,8.30
2018-11-07T00:41:22.816Z,8.30
2018-11-07T00:43:26.090Z,8.30
2018-11-07T00:45:29.385Z,8.30
2018-11-07T00:47:32.642Z,8.30
2018-11-07T00:49:37.058Z,9.30
2018-11-07T00:51:40.300Z,8.40
2018-11-07T00:53:43.538Z,8.90
2018-11-07T00:55:47.138Z,8.30
2018-11-07T00:57:50.391Z,8.20
2018-11-07T00:59:55.613Z,8.20
2018-11-07T01:03:23.335Z,8.20
2018-11-07T01:05:26.585Z,8.10
2018-11-07T01:07:29.839Z,8.00
2018-11-07T01:09:33.901Z,8.20
2018-11-07T01:11:37.926Z,8.20
2018-11-07T01:13:41.158Z,8.40
2018-11-07T01:15:44.726Z,8.40
2018-11-07T01:17:47.966Z,8.30
2018-11-07T01:19:51.227Z,8.30
2018-11-07T01:21:55.696Z,8.40
2018-11-07T01:23:58.934Z,8.40
2018-11-07T01:26:02.200Z,4.50
2018-11-07T01:28:05.903Z,8.30
2018-11-07T01:30:10.913Z,8.20
2018-11-07T01:32:15.098Z,8.20
2018-11-07T01:34:18.650Z,8.10
2018-11-07T01:36:21.906Z,8.10
2018-11-07T01:38:25.157Z,8.20
2018-11-07T01:40:28.514Z,7.80
2018-11-07T01:42:33.524Z,7.80
2018-11-07T01:44:36.784Z,7.90
2018-11-07T01:46:41.343Z,8.10
2018-11-07T01:48:44.587Z,7.80
2018-11-07T01:50:47.838Z,7.90
2018-11-07T01:52:52.299Z,7.90
2018-11-07T01:54:55.554Z,7.80
2018-11-07T01:56:58.902Z,7.80
2018-11-07T01:59:02.446Z,7.80
2018-11-07T02:01:05.993Z,7.70
2018-11-07T02:03:10.697Z,7.60
2018-11-07T02:05:14.571Z,7.60
2018-11-07T02:07:17.826Z,7.40
2018-11-07T02:09:21.081Z,7.40
2018-11-07T02:11:24.582Z,7.40
2018-11-07T02:13:28.610Z,7.40
2018-11-07T02:15:31.866Z,7.40
2018-11-07T02:17:35.346Z,7.30
2018-11-07T02:19:39.361Z,7.30
2018-11-07T02:21:42.722Z,3.30
2018-11-07T02:23:48.134Z,7.30
2018-11-07T02:25:51.390Z,7.30
2018-11-07T02:27:54.637Z,7.30
2018-11-07T02:29:58.365Z,7.40
2018-11-07T02:32:01.622Z,7.10
2018-11-07T02:34:06.022Z,7.40
2018-11-07T02:36:09.572Z,7.40
2018-11-07T02:38:12.825Z,7.60
2018-11-07T02:40:16.153Z,7.60
2018-11-07T02:42:20.471Z,7.70
2018-11-07T02:44:25.657Z,7.70
2018-11-07T02:46:28.886Z,7.80
2018-11-07T02:48:32.170Z,7.80
2018-11-07T02:50:35.415Z,7.80
2018-11-07T02:52:38.660Z,5.60
2018-11-07T02:54:43.105Z,7.80
2018-11-07T02:56:46.355Z,7.70
2018-11-07T02:58:49.675Z,7.70
2018-11-07T03:01:07.030Z,7.70
2018-11-07T03:03:11.178Z,7.70
2018-11-07T03:05:14.434Z,7.70
2018-11-07T03:07:17.986Z,7.80
2018-11-07T03:09:21.237Z,7.80
2018-11-07T03:11:25.433Z,7.80
2018-11-07T03:13:28.985Z,7.80
2018-11-07T03:15:32.254Z,7.80
2018-11-07T03:17:35.727Z,7.90
2018-11-07T03:19:40.089Z,7.90
2018-11-07T03:21:47.048Z,8.00
2018-11-07T03:23:50.327Z,7.80
2018-11-07T03:25:53.856Z,7.80
2018-11-07T03:27:57.123Z,7.70
2018-11-07T03:30:00.415Z,7.70
2018-11-07T03:32:04.958Z,7.80
2018-11-07T03:34:08.190Z,7.80
2018-11-07T03:36:11.468Z,7.90
2018-11-07T03:38:15.654Z,7.80
2018-11-07T03:40:18.943Z,7.80
2018-11-07T03:42:24.624Z,7.80
2018-11-07T03:44:28.090Z,7.90
2018-11-07T03:46:31.334Z,7.90
2018-11-07T03:48:34.562Z,7.80
2018-11-07T03:50:37.833Z,7.90
2018-11-07T03:52:42.021Z,7.90
2018-11-07T03:54:45.259Z,8.00
2018-11-07T03:58:52.674Z,7.80
2018-11-07T04:00:55.916Z,8.00
2018-11-07T04:03:02.623Z,7.90
2018-11-07T04:05:08.118Z,7.90
2018-11-07T04:07:11.353Z,8.00
2018-11-07T04:09:15.366Z,8.00
2018-11-07T04:11:18.642Z,8.00
2018-11-07T04:13:22.961Z,7.90
2018-11-07T04:15:26.984Z,8.00
2018-11-07T04:17:30.222Z,7.90
2018-11-07T04:19:33.477Z,7.80
2018-11-07T04:21:37.030Z,7.80
2018-11-07T04:23:46.780Z,7.70
2018-11-07T04:25:50.040Z,7.70
2018-11-07T04:27:53.446Z,7.70
2018-11-07T04:29:56.692Z,7.70
2018-11-07T04:31:59.947Z,7.70
2018-11-07T04:34:04.806Z,7.80
2018-11-07T04:36:08.071Z,5.10
2018-11-07T04:38:11.316Z,7.90
2018-11-07T04:40:14.766Z,7.80
2018-11-07T04:42:18.010Z,7.80
2018-11-07T04:44:24.673Z,7.80
2018-11-07T04:46:28.127Z,7.70
2018-11-07T04:48:31.369Z,7.70
2018-11-07T04:50:34.606Z,7.70
2018-11-07T04:52:38.643Z,7.70
2018-11-07T04:54:42.945Z,7.70
2018-11-07T04:56:46.205Z,7.60
2018-11-07T04:58:49.822Z,7.60
2018-11-07T05:00:53.066Z,7.60
2018-11-07T05:02:56.366Z,7.80
2018-11-07T05:05:02.371Z,7.60
2018-11-07T05:07:05.907Z,7.50
2018-11-07T05:09:09.821Z,7.60
2018-11-07T05:11:13.870Z,7.60
2018-11-07T05:13:17.114Z,7.60
2018-11-07T05:15:21.726Z,7.60
2018-11-07T05:17:25.242Z,7.50
2018-11-07T05:19:28.575Z,7.20
2018-11-07T05:21:31.754Z,7.40
2018-11-07T05:23:35.234Z,7.40
2018-11-07T05:25:42.286Z,7.40
2018-11-07T05:27:45.530Z,7.40
2018-11-07T05:29:50.969Z,7.40
2018-11-07T05:31:54.200Z,7.30
2018-11-07T05:33:57.624Z,7.30
2018-11-07T05:36:02.182Z,7.40
2018-11-07T05:38:05.501Z,7.40
2018-11-07T05:40:08.768Z,7.30
2018-11-07T05:42:12.354Z,6.90
2018-11-07T05:44:15.592Z,7.30
2018-11-07T05:46:20.930Z,7.20
2018-11-07T05:48:25.098Z,7.20
2018-11-07T05:50:28.346Z,7.10
2018-11-07T05:52:31.582Z,7.10
2018-11-07T05:54:35.170Z,7.10
2018-11-07T05:56:39.286Z,7.20
2018-11-07T05:58:42.527Z,7.20
2018-11-07T06:00:46.063Z,7.30
2018-11-07T06:02:49.288Z,7.30
2018-11-07T06:04:52.550Z,7.40
2018-11-07T06:06:58.411Z,7.40
2018-11-07T06:09:02.014Z,7.40
2018-11-07T06:11:05.252Z,7.40
2018-11-07T06:13:08.706Z,7.40
2018-11-07T06:15:12.390Z,7.40
2018-11-07T06:17:16.863Z,7.40
2018-11-07T06:19:20.505Z,7.40
2018-11-07T06:21:23.854Z,7.50
2018-11-07T06:23:27.117Z,7.50
2018-11-07T06:25:30.392Z,7.50
2018-11-07T06:27:35.704Z,7.50
2018-11-07T06:29:38.950Z,7.50
2018-11-07T06:31:42.506Z,7.40
2018-11-07T06:33:45.766Z,7.60
2018-11-07T06:35:48.977Z,7.60
2018-11-07T06:37:53.930Z,7.60
2018-11-07T06:39:57.165Z,7.60
2018-11-07T06:42:00.438Z,7.60
2018-11-07T06:44:03.902Z,7.60
2018-11-07T06:46:07.277Z,7.60
2018-11-07T06:48:12.266Z,7.60
2018-11-07T06:50:16.238Z,7.70
2018-11-07T06:52:19.461Z,7.80
2018-11-07T06:54:22.703Z,5.90
2018-11-07T06:56:26.761Z,7.80
2018-11-07T06:58:30.989Z,7.70
2018-11-07T07:00:35.185Z,7.80
2018-11-07T07:02:39.618Z,7.90
2018-11-07T07:04:42.949Z,7.90
2018-11-07T07:06:46.186Z,7.90
2018-11-07T07:08:52.198Z,7.90
2018-11-07T07:10:55.831Z,7.90
2018-11-07T07:12:59.069Z,8.00
2018-11-07T07:15:03.477Z,8.10
2018-11-07T07:17:06.698Z,8.20
2018-11-07T07:19:10.840Z,8.30
2018-11-07T07:21:14.402Z,8.30
2018-11-07T07:23:17.643Z,8.40
2018-11-07T07:25:20.881Z,8.50
2018-11-07T07:27:24.407Z,8.50
2018-11-07T07:29:29.679Z,8.50
2018-11-07T07:31:32.893Z,8.50
2018-11-07T07:33:37.660Z,8.80
2018-11-07T07:35:40.871Z,8.90
2018-11-07T07:37:44.102Z,8.90
2018-11-07T07:39:48.529Z,9.00
2018-11-07T07:41:51.773Z,9.10
2018-11-07T07:43:55.025Z,9.20
2018-11-07T07:45:58.525Z,9.30
2018-11-07T07:48:01.767Z,9.50
2018-11-07T07:50:08.958Z,9.50
2018-11-07T07:52:13.716Z,9.80
2018-11-07T07:54:16.983Z,9.90
2018-11-07T07:56:20.227Z,10.00
2018-11-07T07:58:23.664Z,10.10
2018-11-07T08:00:27.938Z,10.20
2018-11-07T08:02:31.180Z,10.30
2018-11-07T08:04:34.470Z,10.50
2018-11-07T08:06:38.328Z,10.50
2018-11-07T08:08:41.555Z,10.60
2018-11-07T08:10:47.734Z,10.70
2018-11-07T08:12:51.677Z,10.90
2018-11-07T08:14:54.962Z,10.90
2018-11-07T08:16:58.530Z,11.00
2018-11-07T08:19:01.775Z,11.00
2018-11-07T08:21:05.974Z,11.20
2018-11-07T08:23:09.535Z,11.30
2018-11-07T08:25:12.974Z,11.30
2018-11-07T08:27:16.211Z,11.40
2018-11-07T08:29:20.674Z,11.50
2018-11-07T08:31:27.654Z,11.60
2018-11-07T08:33:30.894Z,11.70
2018-11-07T08:35:34.399Z,11.80
2018-11-07T08:37:37.678Z,12.00
2018-11-07T08:39:40.962Z,12.00
2018-11-07T08:41:45.072Z,12.10
2018-11-07T08:43:48.302Z,12.20
2018-11-07T08:45:51.547Z,12.20
2018-11-07T08:47:56.316Z,12.30
2018-11-07T08:49:59.555Z,12.40
2018-11-07T08:52:05.175Z,12.50
2018-11-07T08:54:08.452Z,12.50
2018-11-07T08:56:11.704Z,12.90
2018-11-07T08:58:14.927Z,12.70
2018-11-07T09:00:19.736Z,12.80
2018-11-07T09:02:23.681Z,13.00
2018-11-07T09:04:26.926Z,13.00
2018-11-07T09:06:30.526Z,13.10
2018-11-07T09:08:33.750Z,13.20
2018-11-07T09:10:36.998Z,13.20
2018-11-07T09:12:42.256Z,13.30
2018-11-07T09:14:45.566Z,13.40
2018-11-07T09:16:48.817Z,13.50
2018-11-07T09:18:52.094Z,13.70
2018-11-07T09:20:55.333Z,13.80
2018-11-07T09:22:59.561Z,13.90
2018-11-07T09:25:04.345Z,11.50
2018-11-07T09:27:07.602Z,14.10
2018-11-07T09:29:10.914Z,14.20
2018-11-07T09:31:14.115Z,14.60
2018-11-07T09:33:19.389Z,15.10
2018-11-07T09:35:22.643Z,16.90
2018-11-07T09:37:25.936Z,18.90
2018-11-07T09:39:29.243Z,20.10
2018-11-07T09:41:32.431Z,20.80
2018-11-07T09:43:38.989Z,21.70
2018-11-07T09:45:42.370Z,21.90
2018-11-07T09:47:46.241Z,23.00
2018-11-07T09:49:49.790Z,23.10
2018-11-07T09:51:53.022Z,22.10
2018-11-07T09:53:58.488Z,22.80
2018-11-07T09:56:01.884Z,22.40
2018-11-07T09:58:05.275Z,22.40
2018-11-07T10:00:12.130Z,21.90
2018-11-07T10:02:16.098Z,22.70
2018-11-07T10:04:20.347Z,22.60
2018-11-07T10:06:23.635Z,22.10
2018-11-07T10:08:27.203Z,23.10
2018-11-07T10:10:30.673Z,22.70
2018-11-07T10:12:33.949Z,22.80
2018-11-07T10:15:59.290Z,22.70
2018-11-07T10:18:02.514Z,22.90
2018-11-07T10:20:08.455Z,22.50
2018-11-07T10:22:13.168Z,22.20
2018-11-07T10:24:16.398Z,21.80
2018-11-07T10:26:20.602Z,21.80
2018-11-07T10:28:24.371Z,20.60
2018-11-07T10:30:27.442Z,23.00
2018-11-07T10:32:30.791Z,22.70
2018-11-07T10:34:34.136Z,21.70
2018-11-07T10:36:39.102Z,21.40
2018-11-07T10:38:42.465Z,21.10
2018-11-07T10:40:45.846Z,21.70
2018-11-07T10:42:49.238Z,21.80
2018-11-07T10:44:52.474Z,21.70
2018-11-07T10:46:56.854Z,21.20
2018-11-07T10:49:00.107Z,20.60
2018-11-07T10:53:14.917Z,21.00
2018-11-07T10:55:18.562Z,20.90
2018-11-07T10:57:23.178Z,21.00
2018-11-07T10:59:26.742Z,22.00
2018-11-07T11:01:35.297Z,22.50
2018-11-07T11:03:38.527Z,22.50
2018-11-07T11:05:42.454Z,22.40
2018-11-07T11:07:47.315Z,22.90
2018-11-07T11:09:50.553Z,24.00
2018-11-07T11:11:53.822Z,23.80
2018-11-07T11:13:57.054Z,23.10
2018-11-07T11:16:01.906Z,23.00
2018-11-07T11:18:06.845Z,23.00
2018-11-07T11:20:11.971Z,22.80
2018-11-07T11:22:15.208Z,22.50
2018-11-07T11:24:18.738Z,22.60
2018-11-07T11:26:22.075Z,22.60
2018-11-07T11:28:26.274Z,22.30
2018-11-07T11:30:29.551Z,22.30
2018-11-07T11:32:32.777Z,21.90
2018-11-07T11:34:36.035Z,21.80
2018-11-07T11:36:39.602Z,22.00
2018-11-07T11:38:44.371Z,22.10
2018-11-07T11:40:47.883Z,22.10
2018-11-07T11:42:51.426Z,22.50
2018-11-07T11:44:54.678Z,22.10
2018-11-07T11:46:57.935Z,22.10
2018-11-07T11:49:02.143Z,21.90
2018-11-07T11:51:05.707Z,22.10
2018-11-07T11:53:08.896Z,22.60
2018-11-07T11:55:12.547Z,21.90
2018-11-07T11:57:15.823Z,22.20
2018-11-07T11:59:20.681Z,21.80
2018-11-07T12:01:24.018Z,21.70
2018-11-07T12:03:27.284Z,21.00
2018-11-07T12:05:30.526Z,20.40
2018-11-07T12:07:33.949Z,19.80
2018-11-07T12:09:38.042Z,19.70
2018-11-07T12:11:41.292Z,19.60
2018-11-07T12:13:45.514Z,19.70
2018-11-07T12:15:48.746Z,19.50
2018-11-07T12:17:53.776Z,19.90
2018-11-07T12:19:58.324Z,20.70
2018-11-07T12:22:01.592Z,21.00
2018-11-07T12:24:05.273Z,21.10
2018-11-07T12:26:08.802Z,21.20
2018-11-07T12:28:12.045Z,21.00
2018-11-07T12:30:18.873Z,20.40
2018-11-07T12:32:22.134Z,19.40
2018-11-07T12:34:25.383Z,19.40
2018-11-07T12:36:28.642Z,19.20
2018-11-07T12:38:32.145Z,19.00
2018-11-07T12:40:36.722Z,18.50
2018-11-07T12:42:40.081Z,18.90
2018-11-07T12:44:44.314Z,18.50
2018-11-07T12:46:47.562Z,19.30
2018-11-07T12:48:50.814Z,19.50
2018-11-07T12:50:55.213Z,18.90
2018-11-07T12:52:58.442Z,18.50
2018-11-07T12:55:01.710Z,18.30
2018-11-07T12:57:05.046Z,18.70
2018-11-07T12:59:08.678Z,18.70
2018-11-07T13:01:13.174Z,18.40
2018-11-07T13:03:17.094Z,18.50
2018-11-07T13:05:21.155Z,18.70
2018-11-07T13:07:24.381Z,18.40
2018-11-07T13:09:27.690Z,18.00
2018-11-07T13:11:31.910Z,17.90
2018-11-07T13:13:36.910Z,17.70
2018-11-07T13:15:40.538Z,17.90
2018-11-07T13:17:43.861Z,17.80
2018-11-07T13:19:49.004Z,17.90
2018-11-07T13:21:54.419Z,18.30
2018-11-07T13:23:57.678Z,18.80
2018-11-07T13:26:03.308Z,19.10
2018-11-07T13:28:06.791Z,20.40
2018-11-07T13:30:12.705Z,21.00
2018-11-07T13:32:16.959Z,21.00
2018-11-07T13:34:20.226Z,20.10
2018-11-07T13:36:23.462Z,20.50
2018-11-07T13:38:27.006Z,20.50
2018-11-07T13:40:30.987Z,20.50
2018-11-07T13:42:35.645Z,20.10
2018-11-07T13:44:38.882Z,18.60
2018-11-07T13:46:42.407Z,17.80
2018-11-07T13:48:45.733Z,17.20
2018-11-07T13:50:48.976Z,17.10
2018-11-07T13:52:53.563Z,16.50
2018-11-07T13:54:56.738Z,16.10
2018-11-07T13:56:59.963Z,16.20
2018-11-07T13:59:03.959Z,15.90
2018-11-07T14:01:07.229Z,15.80
2018-11-07T14:03:11.730Z,15.80
2018-11-07T14:05:15.418Z,15.70
2018-11-07T14:07:18.557Z,15.70
2018-11-07T14:09:21.902Z,15.60
2018-11-07T14:11:25.482Z,15.50
2018-11-07T14:13:29.618Z,15.50
2018-11-07T14:15:32.879Z,15.30
2018-11-07T14:17:36.894Z,15.30
2018-11-07T14:19:40.125Z,15.20
2018-11-07T14:21:45.059Z,15.20
2018-11-07T14:23:49.325Z,15.10
2018-11-07T14:25:52.545Z,14.90
2018-11-07T14:27:55.940Z,15.10
2018-11-07T14:29:59.913Z,15.00
2018-11-07T14:32:03.464Z,14.90
2018-11-07T14:34:07.880Z,14.90
2018-11-07T14:36:12.658Z,14.80
2018-11-07T14:38:15.958Z,14.80
2018-11-07T14:40:19.227Z,14.70
2018-11-07T14:42:22.944Z,14.80
2018-11-07T14:44:27.601Z,14.80
2018-11-07T14:46:30.991Z,14.90
2018-11-07T14:48:34.659Z,14.80
2018-11-07T14:50:37.941Z,14.70
2018-11-07T14:52:42.286Z,14.80
2018-11-07T14:54:47.727Z,14.70
2018-11-07T14:56:50.978Z,14.60
2018-11-07T14:58:54.419Z,14.50
2018-11-07T15:00:58.107Z,14.50
2018-11-07T15:03:02.263Z,14.40
2018-11-07T15:07:12.375Z,14.40
2018-11-07T15:09:15.804Z,14.40
2018-11-07T15:11:19.270Z,14.30
2018-11-07T15:13:23.940Z,14.40
2018-11-07T15:15:28.098Z,14.30
2018-11-07T15:17:31.457Z,14.20
2018-11-07T15:19:35.280Z,14.10
2018-11-07T15:21:39.254Z,14.10
2018-11-07T15:25:47.715Z,14.10
2018-11-07T15:27:51.153Z,14.10
2018-11-07T15:29:55.526Z,14.00
2018-11-07T15:31:59.021Z,14.00
2018-11-07T15:34:02.437Z,14.00
2018-11-07T15:36:08.138Z,14.10
2018-11-07T15:38:11.702Z,13.80
2018-11-07T15:40:16.284Z,13.80
2018-11-07T15:42:19.618Z,13.80
2018-11-07T15:44:24.266Z,13.90
2018-11-07T15:46:29.146Z,13.80
2018-11-07T15:48:32.439Z,13.80
2018-11-07T15:50:41.259Z,13.80
2018-11-07T15:52:48.430Z,13.80
2018-11-07T15:54:51.695Z,13.80
2018-11-07T15:56:56.242Z,13.80
2018-11-07T15:59:00.427Z,13.80
2018-11-07T16:01:03.733Z,13.70
2018-11-07T16:03:08.378Z,12.40
2018-11-07T16:05:13.384Z,13.70
2018-11-07T16:07:18.886Z,13.60
2018-11-07T16:09:23.671Z,13.60
2018-11-07T16:11:29.049Z,13.60
2018-11-07T16:13:32.929Z,13.70
2018-11-07T16:15:36.299Z,13.60
2018-11-07T16:17:40.772Z,13.60
2018-11-07T16:19:44.244Z,13.60
2018-11-07T16:21:48.663Z,13.60
2018-11-07T16:23:52.728Z,13.60
2018-11-07T16:25:56.457Z,13.60
2018-11-07T16:28:01.819Z,13.60
2018-11-07T16:30:07.036Z,13.30
2018-11-07T16:34:14.376Z,13.40
2018-11-07T16:36:22.531Z,13.40
2018-11-07T16:38:26.835Z,13.20
2018-11-07T16:40:31.210Z,14.90
2018-11-07T16:42:35.404Z,13.20
2018-11-07T16:44:39.019Z,13.30
2018-11-07T16:46:42.887Z,13.30
2018-11-07T16:48:48.461Z,13.30
2018-11-07T16:50:52.363Z,13.20
2018-11-07T16:52:55.700Z,13.20
2018-11-07T16:54:59.785Z,13.20
2018-11-07T16:57:03.850Z,13.20
2018-11-07T16:59:08.887Z,13.20
2018-11-07T17:01:12.277Z,13.20
2018-11-07T17:03:16.412Z,13.10
2018-11-07T17:05:20.514Z,13.20
2018-11-07T17:07:24.082Z,13.20
2018-11-07T17:09:30.181Z,13.20
2018-11-07T17:11:34.406Z,13.20
2018-11-07T17:13:38.257Z,13.10
2018-11-07T17:15:41.867Z,13.10
2018-11-07T17:17:46.303Z,13.20
2018-11-07T17:19:51.182Z,13.20
2018-11-07T17:21:55.037Z,13.10
2018-11-07T17:23:58.524Z,13.10
2018-11-07T17:26:02.293Z,13.10
2018-11-07T17:28:06.616Z,13.10
2018-11-07T17:30:12.938Z,13.10
2018-11-07T17:32:16.826Z,13.10
2018-11-07T17:34:20.469Z,13.30
2018-11-07T17:36:24.953Z,13.10
2018-11-07T17:38:28.962Z,13.10
2018-11-07T17:40:33.501Z,13.10
2018-11-07T17:42:37.908Z,13.10
2018-11-07T17:44:41.553Z,13.10
2018-11-07T17:46:45.363Z,13.20
2018-11-07T17:48:49.564Z,13.20
2018-11-07T17:50:55.382Z,13.20
2018-11-07T17:52:59.800Z,13.20
2018-11-07T17:55:05.190Z,13.20
2018-11-07T17:57:08.857Z,13.20
2018-11-07T18:00:32.305Z,13.30
2018-11-07T18:02:37.438Z,13.20
2018-11-07T18:04:41.459Z,13.20
2018-11-07T18:06:45.982Z,13.30
2018-11-07T18:08:50.387Z,13.30
2018-11-07T18:10:54.343Z,13.40
2018-11-07T18:13:00.212Z,13.30
2018-11-07T18:15:03.987Z,13.30
2018-11-07T18:17:07.882Z,13.30
2018-11-07T18:19:12.870Z,13.30
2018-11-07T18:21:18.254Z,13.40
2018-11-07T18:23:23.474Z,13.40
2018-11-07T18:25:27.788Z,13.30
2018-11-07T18:27:31.762Z,13.30
2018-11-07T18:29:36.005Z,13.30
2018-11-07T18:31:41.537Z,13.40
2018-11-07T18:33:47.428Z,13.30
2018-11-07T18:35:51.481Z,13.30
2018-11-07T18:37:55.454Z,13.30
2018-11-07T18:39:59.404Z,13.30
2018-11-07T18:42:03.387Z,13.30
2018-11-07T18:44:08.799Z,13.30
2018-11-07T18:46:12.778Z,13.30
2018-11-07T18:48:16.763Z,13.20
2018-11-07T18:50:21.234Z,13.20
2018-11-07T18:52:25.908Z,13.20
2018-11-07T18:54:33.536Z,13.10
2018-11-07T18:56:38.383Z,13.10
2018-11-07T18:58:43.074Z,13.10
2018-11-07T19:00:46.993Z,13.00
2018-11-07T19:02:51.616Z,12.90
2018-11-07T19:04:56.769Z,12.90
2018-11-07T19:07:00.703Z,12.90
2018-11-07T19:09:06.168Z,12.90
2018-11-07T19:11:10.168Z,12.90
2018-11-07T19:13:14.703Z,12.80
2018-11-07T19:15:20.976Z,12.70
2018-11-07T19:17:24.897Z,12.60
2018-11-07T19:19:29.450Z,12.40
2018-11-07T19:21:33.742Z,12.60
2018-11-07T19:23:37.691Z,12.60
2018-11-07T19:25:43.070Z,12.40
2018-11-07T19:27:48.370Z,12.70
2018-11-07T19:29:53.034Z,12.20
2018-11-07T19:31:57.064Z,12.50
2018-11-07T19:34:01.462Z,12.40
2018-11-07T19:36:07.465Z,12.50
2018-11-07T19:38:11.473Z,12.50
2018-11-07T19:40:17.451Z,12.50
2018-11-07T19:42:21.365Z,12.50
2018-11-07T19:44:25.341Z,12.40
2018-11-07T19:46:31.125Z,12.40
2018-11-07T19:48:35.814Z,12.40
2018-11-07T19:50:39.771Z,12.40
2018-11-07T19:52:44.447Z,12.40
2018-11-07T19:54:48.374Z,12.50
2018-11-07T19:56:54.561Z,12.40
2018-11-07T19:58:58.592Z,12.40
2018-11-07T20:01:02.701Z,12.40
2018-11-07T20:03:06.628Z,12.40
2018-11-07T20:05:10.939Z,12.40
2018-11-07T20:07:16.273Z,12.40
2018-11-07T20:09:20.317Z,12.40
2018-11-07T20:11:24.825Z,12.40
2018-11-07T20:13:29.068Z,12.40
2018-11-07T20:15:32.960Z,12.50
2018-11-07T20:17:40.273Z,12.40
2018-11-07T20:19:45.011Z,12.40
2018-11-07T20:21:49.831Z,12.40
2018-11-07T20:23:54.156Z,12.40
2018-11-07T20:25:58.835Z,12.20
2018-11-07T20:28:03.918Z,12.30
2018-11-07T20:30:09.978Z,12.00
2018-11-07T20:32:14.633Z,12.10
2018-11-07T20:34:18.769Z,12.00
2018-11-07T20:36:25.290Z,12.00
2018-11-07T20:38:31.429Z,12.00
2018-11-07T20:40:35.523Z,12.00
2018-11-07T20:42:39.866Z,12.60
2018-11-07T20:44:44.496Z,11.90
2018-11-07T20:46:48.529Z,11.80
2018-11-07T20:48:53.857Z,11.80
2018-11-07T20:50:57.791Z,11.80
2018-11-07T20:55:05.393Z,11.90
2018-11-07T20:57:09.365Z,12.10
2018-11-07T20:59:14.262Z,11.90
2018-11-07T21:01:18.478Z,11.90
2018-11-07T21:03:22.443Z,11.90
2018-11-07T21:05:26.389Z,11.80
2018-11-07T21:07:30.342Z,11.90
2018-11-07T21:09:35.275Z,11.90
2018-11-07T21:11:39.249Z,11.80
2018-11-07T21:13:43.542Z,12.00
2018-11-07T21:15:47.477Z,11.80
2018-11-07T21:17:51.330Z,11.60
2018-11-07T21:19:58.126Z,11.80
2018-11-07T21:22:01.989Z,11.80
2018-11-07T21:24:05.917Z,11.80
2018-11-07T21:26:09.902Z,11.80
2018-11-07T21:28:13.720Z,11.80
2018-11-07T21:30:18.913Z,11.80
2018-11-07T21:32:22.952Z,11.80
2018-11-07T21:34:26.357Z,11.80
2018-11-07T21:36:30.194Z,11.80
2018-11-07T21:38:33.743Z,11.80
2018-11-07T21:40:38.386Z,11.70
2018-11-07T21:42:42.133Z,11.70
2018-11-07T21:44:45.866Z,11.60
2018-11-07T21:46:49.277Z,11.60
2018-11-07T21:48:53.439Z,11.70
2018-11-07T21:50:57.871Z,11.70
2018-11-07T21:53:01.214Z,11.80
2018-11-07T21:55:05.240Z,11.80
2018-11-07T21:57:08.787Z,11.80
2018-11-07T21:59:12.149Z,11.70
2018-11-07T22:01:16.841Z,11.60
2018-11-07T22:03:20.497Z,11.60
2018-11-07T22:05:23.741Z,11.70
2018-11-07T22:07:27.039Z,12.00
2018-11-07T22:09:30.486Z,11.60
2018-11-07T22:11:34.583Z,11.70
2018-11-07T22:13:37.813Z,11.70
2018-11-07T22:15:42.300Z,11.60
2018-11-07T22:17:45.535Z,11.80
2018-11-07T22:19:49.029Z,11.70
2018-11-07T22:21:54.021Z,11.70
2018-11-07T22:23:57.320Z,11.70
2018-11-07T22:26:00.518Z,11.70
2018-11-07T22:28:04.237Z,11.80
2018-11-07T22:30:09.190Z,11.70
2018-11-07T22:32:13.346Z,11.70
2018-11-07T22:34:17.875Z,11.70
2018-11-07T22:36:21.178Z,11.70
2018-11-07T22:38:24.424Z,11.60
2018-11-07T22:40:27.701Z,11.70
2018-11-07T22:42:33.094Z,11.70
2018-11-07T22:44:36.351Z,11.60
2018-11-07T22:46:40.078Z,11.60
2018-11-07T22:48:43.625Z,11.60
2018-11-07T22:50:46.932Z,11.60
2018-11-07T22:52:51.805Z,11.60
2018-11-07T22:54:55.063Z,11.50
2018-11-07T22:56:58.314Z,11.50
2018-11-07T22:59:01.766Z,11.50
2018-11-07T23:01:10.638Z,11.50
2018-11-07T23:03:15.938Z,11.50
2018-11-07T23:05:19.440Z,11.50
2018-11-07T23:07:26.235Z,11.50
2018-11-07T23:09:33.864Z,11.60
2018-11-07T23:11:40.053Z,11.60
2018-11-07T23:13:44.003Z,11.60
2018-11-07T23:15:48.143Z,11.60
2018-11-07T23:17:51.399Z,11.60
2018-11-07T23:19:54.625Z,11.70
2018-11-07T23:21:57.858Z,11.70
2018-11-07T23:24:03.274Z,11.70
2018-11-07T23:26:06.510Z,11.70
2018-11-07T23:28:09.798Z,11.70
2018-11-07T23:30:14.177Z,11.70
2018-11-07T23:32:17.477Z,11.70
2018-11-07T23:34:21.718Z,11.70
2018-11-07T23:36:25.273Z,11.70
2018-11-07T23:38:28.505Z,11.60
2018-11-07T23:40:31.880Z,11.60
2018-11-07T23:42:35.221Z,11.60
2018-11-07T23:44:40.274Z,11.50
2018-11-07T23:46:43.520Z,11.50
2018-11-07T23:48:48.302Z,11.40
2018-11-07T23:50:51.559Z,11.40
2018-11-07T23:52:54.827Z,11.30
2018-11-07T23:54:58.958Z,11.30
2018-11-07T23:57:02.190Z,11.30
2018-11-07T23:59:05.778Z,11.20
